KMDD/MDD METAR and TAF weather

Enter ICAO airport designator
Station Type Date Time Source
KMDD METAR 2019/08/24 06:55 UTC NOAA

KMDD 240655Z AUTO 13006KT 10SM CLR 24/19 A3002 RMK AO2 T02400188


Station Type Date Time Source
KMDD Decoded METAR 2019/08/24 06:55 UTC NOAA

Station name not available
Aug 24, 2019 - 02:55 AM EDT / 2019.08.24 0655 UTC
Wind: from the SE (130 degrees) at 7 MPH (6 KT):0
Visibility: 10 mile(s):0
Sky conditions: clear
Temperature: 75.2 F (24.0 C)
Dew Point: 65.8 F (18.8 C)
Relative Humidity: 72%
Pressure (altimeter): 30.02 in. Hg (1016 hPa)
ob: KMDD 240655Z AUTO 13006KT 10SM CLR 24/19 A3002 RMK AO2 T02400188
cycle: 7

Station Type Date Time Source
KMDD TAF UTC NOAA

Error!

Example: see airport list